sensor_id;sensor_type;location;lat;lon;timestamp;P1;durP1;ratioP1;P2;durP2;ratioP2
26822;SDS011;14852;51.910;8.878;2023-02-28T00:00:24;5.65;;;3.13;;
26822;SDS011;14852;51.910;8.878;2023-02-28T00:02:50;5.03;;;3.20;;
26822;SDS011;14852;51.910;8.878;2023-02-28T00:05:17;4.50;;;3.10;;
26822;SDS011;14852;51.910;8.878;2023-02-28T00:07:47;3.65;;;2.67;;
26822;SDS011;14852;51.910;8.878;2023-02-28T00:10:14;6.88;;;3.58;;
26822;SDS011;14852;51.910;8.878;2023-02-28T00:12:46;4.83;;;3.80;;
26822;SDS011;14852;51.910;8.878;2023-02-28T00:15:13;4.30;;;2.95;;
26822;SDS011;14852;51.910;8.878;2023-02-28T00:17:38;4.40;;;3.08;;
26822;SDS011;14852;51.910;8.878;2023-02-28T00:20:05;4.47;;;2.67;;
26822;SDS011;14852;51.910;8.878;2023-02-28T00:22:37;3.65;;;2.55;;
26822;SDS011;14852;51.910;8.878;2023-02-28T00:25:05;4.15;;;3.08;;
26822;SDS011;14852;51.910;8.878;2023-02-28T00:27:32;3.80;;;2.83;;
26822;SDS011;14852;51.910;8.878;2023-02-28T00:29:59;3.83;;;2.75;;
26822;SDS011;14852;51.910;8.878;2023-02-28T00:32:26;4.72;;;2.90;;
26822;SDS011;14852;51.910;8.878;2023-02-28T00:34:52;4.45;;;2.80;;
26822;SDS011;14852;51.910;8.878;2023-02-28T00:37:17;3.70;;;2.78;;
26822;SDS011;14852;51.910;8.878;2023-02-28T00:39:43;4.15;;;2.22;;
26822;SDS011;14852;51.910;8.878;2023-02-28T00:42:09;5.05;;;2.67;;
26822;SDS011;14852;51.910;8.878;2023-02-28T00:44:35;5.03;;;3.33;;
26822;SDS011;14852;51.910;8.878;2023-02-28T00:47:00;6.28;;;3.88;;
26822;SDS011;14852;51.910;8.878;2023-02-28T00:49:26;7.63;;;4.90;;
26822;SDS011;14852;51.910;8.878;2023-02-28T00:51:53;7.35;;;4.32;;
26822;SDS011;14852;51.910;8.878;2023-02-28T00:54:20;9.65;;;4.43;;
26822;SDS011;14852;51.910;8.878;2023-02-28T00:56:46;7.53;;;4.43;;
26822;SDS011;14852;51.910;8.878;2023-02-28T00:59:13;7.13;;;4.28;;
26822;SDS011;14852;51.910;8.878;2023-02-28T01:01:40;7.20;;;3.95;;
26822;SDS011;14852;51.910;8.878;2023-02-28T01:04:07;7.10;;;4.25;;
26822;SDS011;14852;51.910;8.878;2023-02-28T01:06:34;6.78;;;4.35;;
26822;SDS011;14852;51.910;8.878;2023-02-28T01:09:01;7.60;;;4.07;;
26822;SDS011;14852;51.910;8.878;2023-02-28T01:11:29;10.88;;;4.55;;
26822;SDS011;14852;51.910;8.878;2023-02-28T01:13:55;12.18;;;6.20;;
26822;SDS011;14852;51.910;8.878;2023-02-28T01:16:21;11.13;;;7.10;;
26822;SDS011;14852;51.910;8.878;2023-02-28T01:18:47;9.65;;;5.63;;
26822;SDS011;14852;51.910;8.878;2023-02-28T01:21:14;8.75;;;5.28;;
26822;SDS011;14852;51.910;8.878;2023-02-28T01:23:43;6.95;;;4.00;;
26822;SDS011;14852;51.910;8.878;2023-02-28T01:26:19;6.05;;;2.97;;
26822;SDS011;14852;51.910;8.878;2023-02-28T01:28:47;4.25;;;2.42;;
26822;SDS011;14852;51.910;8.878;2023-02-28T01:31:16;2.95;;;2.17;;
26822;SDS011;14852;51.910;8.878;2023-02-28T01:33:43;2.50;;;1.90;;
26822;SDS011;14852;51.910;8.878;2023-02-28T01:36:14;3.67;;;2.00;;
26822;SDS011;14852;51.910;8.878;2023-02-28T01:41:10;2.97;;;1.88;;
26822;SDS011;14852;51.910;8.878;2023-02-28T01:46:08;2.22;;;1.42;;
26822;SDS011;14852;51.910;8.878;2023-02-28T01:48:36;3.47;;;1.88;;
26822;SDS011;14852;51.910;8.878;2023-02-28T01:51:08;1.65;;;1.42;;
26822;SDS011;14852;51.910;8.878;2023-02-28T01:53:45;1.52;;;1.40;;
26822;SDS011;14852;51.910;8.878;2023-02-28T01:56:17;3.05;;;1.65;;
26822;SDS011;14852;51.910;8.878;2023-02-28T01:58:49;5.63;;;2.58;;
26822;SDS011;14852;51.910;8.878;2023-02-28T02:01:17;3.42;;;2.42;;
26822;SDS011;14852;51.910;8.878;2023-02-28T02:03:48;2.75;;;1.65;;
26822;SDS011;14852;51.910;8.878;2023-02-28T02:06:45;3.60;;;1.88;;
26822;SDS011;14852;51.910;8.878;2023-02-28T02:09:12;3.10;;;1.83;;
26822;SDS011;14852;51.910;8.878;2023-02-28T02:11:39;2.63;;;1.40;;
26822;SDS011;14852;51.910;8.878;2023-02-28T02:17:25;3.92;;;1.90;;
26822;SDS011;14852;51.910;8.878;2023-02-28T02:20:23;1.92;;;1.40;;
26822;SDS011;14852;51.910;8.878;2023-02-28T02:23:27;2.03;;;1.80;;
26822;SDS011;14852;51.910;8.878;2023-02-28T02:26:44;2.55;;;1.63;;
26822;SDS011;14852;51.910;8.878;2023-02-28T02:29:47;1.60;;;1.25;;
26822;SDS011;14852;51.910;8.878;2023-02-28T02:35:40;3.58;;;2.03;;
26822;SDS011;14852;51.910;8.878;2023-02-28T02:38:22;2.13;;;1.70;;
26822;SDS011;14852;51.910;8.878;2023-02-28T02:48:57;3.60;;;2.35;;
26822;SDS011;14852;51.910;8.878;2023-02-28T02:51:29;2.88;;;2.03;;
26822;SDS011;14852;51.910;8.878;2023-02-28T02:54:00;3.95;;;2.10;;
26822;SDS011;14852;51.910;8.878;2023-02-28T02:56:40;2.38;;;1.70;;
26822;SDS011;14852;51.910;8.878;2023-02-28T02:59:11;2.97;;;1.55;;
26822;SDS011;14852;51.910;8.878;2023-02-28T03:01:41;1.77;;;1.10;;
26822;SDS011;14852;51.910;8.878;2023-02-28T03:04:09;1.63;;;1.13;;
26822;SDS011;14852;51.910;8.878;2023-02-28T03:06:39;2.55;;;1.55;;
26822;SDS011;14852;51.910;8.878;2023-02-28T03:09:05;1.33;;;1.08;;
26822;SDS011;14852;51.910;8.878;2023-02-28T03:11:31;4.55;;;1.58;;
26822;SDS011;14852;51.910;8.878;2023-02-28T03:20:12;1.58;;;1.20;;
26822;SDS011;14852;51.910;8.878;2023-02-28T03:23:10;1.83;;;1.73;;
26822;SDS011;14852;51.910;8.878;2023-02-28T03:25:57;2.05;;;1.27;;
26822;SDS011;14852;51.910;8.878;2023-02-28T03:34:06;1.55;;;1.10;;
26822;SDS011;14852;51.910;8.878;2023-02-28T03:36:45;2.28;;;1.30;;
26822;SDS011;14852;51.910;8.878;2023-02-28T03:39:20;2.33;;;1.52;;
26822;SDS011;14852;51.910;8.878;2023-02-28T03:41:59;2.45;;;1.40;;
26822;SDS011;14852;51.910;8.878;2023-02-28T03:44:32;2.00;;;1.35;;
26822;SDS011;14852;51.910;8.878;2023-02-28T03:47:22;1.85;;;1.40;;
26822;SDS011;14852;51.910;8.878;2023-02-28T03:50:24;3.08;;;1.70;;
26822;SDS011;14852;51.910;8.878;2023-02-28T03:55:59;2.45;;;1.40;;
26822;SDS011;14852;51.910;8.878;2023-02-28T03:59:17;1.67;;;1.20;;
26822;SDS011;14852;51.910;8.878;2023-02-28T04:01:45;1.90;;;1.40;;
26822;SDS011;14852;51.910;8.878;2023-02-28T04:04:13;2.58;;;1.58;;
26822;SDS011;14852;51.910;8.878;2023-02-28T04:06:40;1.10;;;1.00;;
26822;SDS011;14852;51.910;8.878;2023-02-28T04:09:08;4.30;;;1.40;;
26822;SDS011;14852;51.910;8.878;2023-02-28T04:11:37;7.15;;;1.70;;
26822;SDS011;14852;51.910;8.878;2023-02-28T04:14:20;1.83;;;1.10;;
26822;SDS011;14852;51.910;8.878;2023-02-28T04:16:47;1.48;;;1.25;;
26822;SDS011;14852;51.910;8.878;2023-02-28T04:19:13;3.55;;;1.73;;
26822;SDS011;14852;51.910;8.878;2023-02-28T04:21:47;2.97;;;1.42;;
26822;SDS011;14852;51.910;8.878;2023-02-28T04:24:21;3.97;;;1.20;;
26822;SDS011;14852;51.910;8.878;2023-02-28T04:26:53;1.95;;;1.25;;
26822;SDS011;14852;51.910;8.878;2023-02-28T04:29:22;2.00;;;1.27;;
26822;SDS011;14852;51.910;8.878;2023-02-28T04:31:54;2.75;;;1.30;;
26822;SDS011;14852;51.910;8.878;2023-02-28T04:34:22;2.15;;;1.17;;
26822;SDS011;14852;51.910;8.878;2023-02-28T04:36:49;1.58;;;1.20;;
26822;SDS011;14852;51.910;8.878;2023-02-28T04:39:16;1.60;;;1.33;;
26822;SDS011;14852;51.910;8.878;2023-02-28T04:41:43;3.88;;;1.30;;
26822;SDS011;14852;51.910;8.878;2023-02-28T04:44:10;1.73;;;1.52;;
26822;SDS011;14852;51.910;8.878;2023-02-28T04:46:36;1.40;;;1.10;;
26822;SDS011;14852;51.910;8.878;2023-02-28T04:49:02;2.47;;;1.23;;
26822;SDS011;14852;51.910;8.878;2023-02-28T04:51:28;1.33;;;1.23;;
26822;SDS011;14852;51.910;8.878;2023-02-28T04:53:54;1.27;;;0.98;;
26822;SDS011;14852;51.910;8.878;2023-02-28T04:56:20;1.63;;;1.52;;
26822;SDS011;14852;51.910;8.878;2023-02-28T04:58:46;3.55;;;1.83;;
26822;SDS011;14852;51.910;8.878;2023-02-28T05:03:50;3.30;;;2.03;;
26822;SDS011;14852;51.910;8.878;2023-02-28T05:06:18;1.35;;;1.15;;
26822;SDS011;14852;51.910;8.878;2023-02-28T05:08:45;3.13;;;1.17;;
26822;SDS011;14852;51.910;8.878;2023-02-28T05:11:16;1.70;;;1.20;;
26822;SDS011;14852;51.910;8.878;2023-02-28T05:13:45;1.70;;;1.25;;
26822;SDS011;14852;51.910;8.878;2023-02-28T05:16:11;1.98;;;1.30;;
26822;SDS011;14852;51.910;8.878;2023-02-28T05:18:37;2.90;;;1.10;;
26822;SDS011;14852;51.910;8.878;2023-02-28T05:21:03;0.98;;;0.95;;
26822;SDS011;14852;51.910;8.878;2023-02-28T05:23:29;2.05;;;1.42;;
26822;SDS011;14852;51.910;8.878;2023-02-28T05:25:55;2.50;;;1.58;;
26822;SDS011;14852;51.910;8.878;2023-02-28T05:28:20;1.60;;;0.95;;
26822;SDS011;14852;51.910;8.878;2023-02-28T05:30:50;2.80;;;1.55;;
26822;SDS011;14852;51.910;8.878;2023-02-28T05:33:15;2.55;;;1.17;;
26822;SDS011;14852;51.910;8.878;2023-02-28T05:35:41;4.50;;;1.40;;
26822;SDS011;14852;51.910;8.878;2023-02-28T05:38:10;1.80;;;1.25;;
26822;SDS011;14852;51.910;8.878;2023-02-28T05:40:38;2.15;;;1.40;;
26822;SDS011;14852;51.910;8.878;2023-02-28T05:43:05;1.73;;;1.00;;
26822;SDS011;14852;51.910;8.878;2023-02-28T05:45:31;2.55;;;1.40;;
26822;SDS011;14852;51.910;8.878;2023-02-28T05:47:56;2.13;;;1.48;;
26822;SDS011;14852;51.910;8.878;2023-02-28T05:50:22;1.65;;;1.50;;
26822;SDS011;14852;51.910;8.878;2023-02-28T05:52:52;1.30;;;1.10;;
26822;SDS011;14852;51.910;8.878;2023-02-28T05:55:18;2.75;;;1.65;;
26822;SDS011;14852;51.910;8.878;2023-02-28T05:57:43;2.47;;;1.90;;
26822;SDS011;14852;51.910;8.878;2023-02-28T06:00:10;3.78;;;1.60;;
26822;SDS011;14852;51.910;8.878;2023-02-28T06:02:39;2.17;;;1.40;;
26822;SDS011;14852;51.910;8.878;2023-02-28T06:05:07;3.42;;;1.30;;
26822;SDS011;14852;51.910;8.878;2023-02-28T06:07:41;1.20;;;1.10;;
26822;SDS011;14852;51.910;8.878;2023-02-28T06:10:08;3.28;;;1.40;;
26822;SDS011;14852;51.910;8.878;2023-02-28T06:12:35;2.92;;;1.70;;
26822;SDS011;14852;51.910;8.878;2023-02-28T06:15:02;1.75;;;1.13;;
26822;SDS011;14852;51.910;8.878;2023-02-28T06:17:29;1.67;;;1.27;;
26822;SDS011;14852;51.910;8.878;2023-02-28T06:19:54;1.98;;;1.60;;
26822;SDS011;14852;51.910;8.878;2023-02-28T06:22:20;2.78;;;1.63;;
26822;SDS011;14852;51.910;8.878;2023-02-28T06:24:46;2.20;;;1.52;;
26822;SDS011;14852;51.910;8.878;2023-02-28T06:27:12;2.10;;;1.40;;
26822;SDS011;14852;51.910;8.878;2023-02-28T06:29:38;2.00;;;1.55;;
26822;SDS011;14852;51.910;8.878;2023-02-28T06:32:06;2.95;;;1.60;;
26822;SDS011;14852;51.910;8.878;2023-02-28T06:34:32;3.75;;;2.00;;
26822;SDS011;14852;51.910;8.878;2023-02-28T06:36:59;2.65;;;1.42;;
26822;SDS011;14852;51.910;8.878;2023-02-28T06:39:27;2.65;;;1.90;;
26822;SDS011;14852;51.910;8.878;2023-02-28T06:41:54;3.17;;;1.92;;
26822;SDS011;14852;51.910;8.878;2023-02-28T06:44:20;3.17;;;2.00;;
26822;SDS011;14852;51.910;8.878;2023-02-28T06:46:47;3.90;;;1.83;;
26822;SDS011;14852;51.910;8.878;2023-02-28T06:49:13;2.70;;;1.85;;
26822;SDS011;14852;51.910;8.878;2023-02-28T06:51:40;3.33;;;1.98;;
26822;SDS011;14852;51.910;8.878;2023-02-28T06:54:09;3.65;;;1.88;;
26822;SDS011;14852;51.910;8.878;2023-02-28T06:56:36;3.85;;;2.40;;
26822;SDS011;14852;51.910;8.878;2023-02-28T06:59:02;4.65;;;2.70;;
26822;SDS011;14852;51.910;8.878;2023-02-28T07:01:28;3.85;;;1.90;;
26822;SDS011;14852;51.910;8.878;2023-02-28T07:03:56;4.32;;;1.77;;
26822;SDS011;14852;51.910;8.878;2023-02-28T07:06:22;2.63;;;1.90;;
26822;SDS011;14852;51.910;8.878;2023-02-28T07:08:48;5.13;;;2.20;;
26822;SDS011;14852;51.910;8.878;2023-02-28T07:11:16;2.70;;;1.85;;
26822;SDS011;14852;51.910;8.878;2023-02-28T07:13:42;2.50;;;2.00;;
26822;SDS011;14852;51.910;8.878;2023-02-28T07:16:09;3.92;;;2.47;;
26822;SDS011;14852;51.910;8.878;2023-02-28T07:18:36;2.70;;;1.95;;
26822;SDS011;14852;51.910;8.878;2023-02-28T07:21:06;3.35;;;1.95;;
26822;SDS011;14852;51.910;8.878;2023-02-28T07:23:34;5.03;;;2.70;;
26822;SDS011;14852;51.910;8.878;2023-02-28T07:26:02;4.15;;;2.83;;
26822;SDS011;14852;51.910;8.878;2023-02-28T07:28:29;4.85;;;2.72;;
26822;SDS011;14852;51.910;8.878;2023-02-28T07:30:55;3.85;;;2.25;;
26822;SDS011;14852;51.910;8.878;2023-02-28T07:33:21;3.78;;;2.72;;
26822;SDS011;14852;51.910;8.878;2023-02-28T07:35:47;4.18;;;2.72;;
26822;SDS011;14852;51.910;8.878;2023-02-28T07:38:13;4.65;;;2.60;;
26822;SDS011;14852;51.910;8.878;2023-02-28T07:40:39;3.63;;;2.65;;
26822;SDS011;14852;51.910;8.878;2023-02-28T07:43:05;7.00;;;2.45;;
26822;SDS011;14852;51.910;8.878;2023-02-28T07:45:31;3.63;;;3.00;;
26822;SDS011;14852;51.910;8.878;2023-02-28T07:47:59;4.55;;;2.97;;
26822;SDS011;14852;51.910;8.878;2023-02-28T07:50:25;4.95;;;3.97;;
26822;SDS011;14852;51.910;8.878;2023-02-28T07:52:55;5.32;;;4.07;;
26822;SDS011;14852;51.910;8.878;2023-02-28T07:55:23;5.32;;;3.50;;
26822;SDS011;14852;51.910;8.878;2023-02-28T07:57:49;5.22;;;3.03;;
26822;SDS011;14852;51.910;8.878;2023-02-28T08:00:14;4.80;;;2.67;;
26822;SDS011;14852;51.910;8.878;2023-02-28T08:02:40;4.22;;;3.17;;
26822;SDS011;14852;51.910;8.878;2023-02-28T08:05:06;6.55;;;4.15;;
26822;SDS011;14852;51.910;8.878;2023-02-28T08:07:32;9.63;;;5.38;;
26822;SDS011;14852;51.910;8.878;2023-02-28T08:09:58;5.55;;;4.47;;
26822;SDS011;14852;51.910;8.878;2023-02-28T08:12:24;5.07;;;3.45;;
26822;SDS011;14852;51.910;8.878;2023-02-28T08:14:50;5.30;;;3.38;;
26822;SDS011;14852;51.910;8.878;2023-02-28T08:17:16;6.55;;;3.53;;
26822;SDS011;14852;51.910;8.878;2023-02-28T08:19:44;8.27;;;3.65;;
26822;SDS011;14852;51.910;8.878;2023-02-28T08:22:11;8.93;;;4.35;;
26822;SDS011;14852;51.910;8.878;2023-02-28T08:24:37;6.45;;;4.25;;
26822;SDS011;14852;51.910;8.878;2023-02-28T08:27:03;7.03;;;4.53;;
26822;SDS011;14852;51.910;8.878;2023-02-28T08:29:28;6.35;;;4.60;;
26822;SDS011;14852;51.910;8.878;2023-02-28T08:31:55;8.57;;;5.03;;
26822;SDS011;14852;51.910;8.878;2023-02-28T08:34:21;8.52;;;5.60;;
26822;SDS011;14852;51.910;8.878;2023-02-28T08:36:48;8.15;;;5.55;;
26822;SDS011;14852;51.910;8.878;2023-02-28T08:39:13;10.10;;;4.95;;
26822;SDS011;14852;51.910;8.878;2023-02-28T08:41:39;13.20;;;4.80;;
26822;SDS011;14852;51.910;8.878;2023-02-28T08:44:07;7.65;;;4.30;;
26822;SDS011;14852;51.910;8.878;2023-02-28T08:46:33;6.50;;;4.03;;
26822;SDS011;14852;51.910;8.878;2023-02-28T08:48:58;5.63;;;3.88;;
26822;SDS011;14852;51.910;8.878;2023-02-28T08:51:26;5.88;;;4.63;;
26822;SDS011;14852;51.910;8.878;2023-02-28T08:53:53;7.68;;;4.35;;
26822;SDS011;14852;51.910;8.878;2023-02-28T08:56:23;7.28;;;4.10;;
26822;SDS011;14852;51.910;8.878;2023-02-28T08:58:49;6.45;;;4.40;;
26822;SDS011;14852;51.910;8.878;2023-02-28T09:01:19;7.35;;;4.28;;
26822;SDS011;14852;51.910;8.878;2023-02-28T09:03:52;6.97;;;3.95;;
26822;SDS011;14852;51.910;8.878;2023-02-28T09:06:19;5.43;;;3.78;;
26822;SDS011;14852;51.910;8.878;2023-02-28T09:08:48;5.50;;;4.10;;
26822;SDS011;14852;51.910;8.878;2023-02-28T09:11:14;6.28;;;4.40;;
26822;SDS011;14852;51.910;8.878;2023-02-28T09:13:40;6.70;;;4.00;;
26822;SDS011;14852;51.910;8.878;2023-02-28T09:16:07;7.47;;;4.97;;
26822;SDS011;14852;51.910;8.878;2023-02-28T09:18:37;11.57;;;6.53;;
26822;SDS011;14852;51.910;8.878;2023-02-28T09:21:07;10.90;;;5.40;;
26822;SDS011;14852;51.910;8.878;2023-02-28T09:23:39;7.15;;;4.40;;
26822;SDS011;14852;51.910;8.878;2023-02-28T09:26:06;7.10;;;4.38;;
26822;SDS011;14852;51.910;8.878;2023-02-28T09:28:37;6.05;;;3.50;;
26822;SDS011;14852;51.910;8.878;2023-02-28T09:31:03;6.20;;;3.50;;
26822;SDS011;14852;51.910;8.878;2023-02-28T09:33:29;4.82;;;3.35;;
26822;SDS011;14852;51.910;8.878;2023-02-28T09:35:59;4.35;;;3.00;;
26822;SDS011;14852;51.910;8.878;2023-02-28T09:38:27;4.43;;;2.97;;
26822;SDS011;14852;51.910;8.878;2023-02-28T09:40:55;4.50;;;2.88;;
26822;SDS011;14852;51.910;8.878;2023-02-28T09:43:24;4.03;;;2.97;;
26822;SDS011;14852;51.910;8.878;2023-02-28T09:48:58;3.53;;;2.55;;
26822;SDS011;14852;51.910;8.878;2023-02-28T09:54:18;5.20;;;2.70;;
26822;SDS011;14852;51.910;8.878;2023-02-28T09:57:07;2.90;;;2.00;;
26822;SDS011;14852;51.910;8.878;2023-02-28T10:03:08;3.08;;;1.90;;
26822;SDS011;14852;51.910;8.878;2023-02-28T10:05:52;2.80;;;2.13;;
26822;SDS011;14852;51.910;8.878;2023-02-28T10:08:37;3.28;;;2.25;;
26822;SDS011;14852;51.910;8.878;2023-02-28T10:11:29;3.45;;;2.45;;
26822;SDS011;14852;51.910;8.878;2023-02-28T10:14:18;3.15;;;2.08;;
26822;SDS011;14852;51.910;8.878;2023-02-28T10:16:55;4.13;;;2.08;;
26822;SDS011;14852;51.910;8.878;2023-02-28T10:25:25;3.67;;;1.85;;
26822;SDS011;14852;51.910;8.878;2023-02-28T10:27:54;2.13;;;1.70;;
26822;SDS011;14852;51.910;8.878;2023-02-28T10:30:30;5.28;;;2.25;;
26822;SDS011;14852;51.910;8.878;2023-02-28T10:32:56;2.78;;;2.00;;
26822;SDS011;14852;51.910;8.878;2023-02-28T10:35:23;2.65;;;2.25;;
26822;SDS011;14852;51.910;8.878;2023-02-28T10:37:58;3.58;;;2.42;;
26822;SDS011;14852;51.910;8.878;2023-02-28T10:40:30;3.63;;;1.90;;
26822;SDS011;14852;51.910;8.878;2023-02-28T10:43:04;2.30;;;1.88;;
26822;SDS011;14852;51.910;8.878;2023-02-28T10:45:57;2.80;;;1.88;;
26822;SDS011;14852;51.910;8.878;2023-02-28T10:48:28;4.28;;;1.92;;
26822;SDS011;14852;51.910;8.878;2023-02-28T10:50:59;3.53;;;2.15;;
26822;SDS011;14852;51.910;8.878;2023-02-28T10:53:33;3.78;;;2.05;;
26822;SDS011;14852;51.910;8.878;2023-02-28T10:56:16;4.05;;;2.17;;
26822;SDS011;14852;51.910;8.878;2023-02-28T10:58:59;3.15;;;2.13;;
26822;SDS011;14852;51.910;8.878;2023-02-28T11:01:52;2.63;;;1.80;;
26822;SDS011;14852;51.910;8.878;2023-02-28T11:04:19;8.07;;;2.05;;
26822;SDS011;14852;51.910;8.878;2023-02-28T11:07:16;3.28;;;2.00;;
26822;SDS011;14852;51.910;8.878;2023-02-28T11:09:51;4.72;;;2.40;;
26822;SDS011;14852;51.910;8.878;2023-02-28T11:15:00;4.10;;;1.90;;
26822;SDS011;14852;51.910;8.878;2023-02-28T11:17:43;3.65;;;2.13;;
26822;SDS011;14852;51.910;8.878;2023-02-28T11:20:19;4.93;;;2.75;;
26822;SDS011;14852;51.910;8.878;2023-02-28T11:22:48;3.97;;;2.40;;
26822;SDS011;14852;51.910;8.878;2023-02-28T11:25:27;3.58;;;2.55;;
26822;SDS011;14852;51.910;8.878;2023-02-28T11:27:58;5.22;;;2.50;;
26822;SDS011;14852;51.910;8.878;2023-02-28T11:35:46;3.10;;;2.22;;
26822;SDS011;14852;51.910;8.878;2023-02-28T11:38:14;4.68;;;2.45;;
26822;SDS011;14852;51.910;8.878;2023-02-28T11:43:36;2.90;;;2.13;;
26822;SDS011;14852;51.910;8.878;2023-02-28T11:46:44;1.88;;;1.50;;
26822;SDS011;14852;51.910;8.878;2023-02-28T11:49:26;3.47;;;1.90;;
26822;SDS011;14852;51.910;8.878;2023-02-28T11:54:59;3.88;;;2.55;;
26822;SDS011;14852;51.910;8.878;2023-02-28T12:03:26;2.92;;;2.20;;
26822;SDS011;14852;51.910;8.878;2023-02-28T12:12:07;3.28;;;1.77;;
26822;SDS011;14852;51.910;8.878;2023-02-28T12:27:10;3.38;;;1.73;;
26822;SDS011;14852;51.910;8.878;2023-02-28T12:32:23;2.03;;;1.70;;
26822;SDS011;14852;51.910;8.878;2023-02-28T12:35:03;2.35;;;2.03;;
26822;SDS011;14852;51.910;8.878;2023-02-28T12:37:36;3.05;;;2.17;;
26822;SDS011;14852;51.910;8.878;2023-02-28T12:40:27;4.25;;;2.13;;
26822;SDS011;14852;51.910;8.878;2023-02-28T12:43:08;3.30;;;2.30;;
26822;SDS011;14852;51.910;8.878;2023-02-28T12:45:48;3.85;;;2.50;;
26822;SDS011;14852;51.910;8.878;2023-02-28T12:48:25;5.07;;;1.98;;
26822;SDS011;14852;51.910;8.878;2023-02-28T12:51:04;3.35;;;2.20;;
26822;SDS011;14852;51.910;8.878;2023-02-28T12:59:23;4.50;;;2.67;;
26822;SDS011;14852;51.910;8.878;2023-02-28T13:02:22;4.78;;;2.22;;
26822;SDS011;14852;51.910;8.878;2023-02-28T13:11:43;4.70;;;2.30;;
26822;SDS011;14852;51.910;8.878;2023-02-28T13:16:56;4.95;;;2.53;;
26822;SDS011;14852;51.910;8.878;2023-02-28T13:19:28;3.25;;;2.00;;
26822;SDS011;14852;51.910;8.878;2023-02-28T13:21:59;3.10;;;2.30;;
26822;SDS011;14852;51.910;8.878;2023-02-28T13:24:44;2.80;;;2.50;;
26822;SDS011;14852;51.910;8.878;2023-02-28T13:27:22;5.28;;;2.10;;
26822;SDS011;14852;51.910;8.878;2023-02-28T13:33:36;3.97;;;2.33;;
26822;SDS011;14852;51.910;8.878;2023-02-28T13:36:24;2.70;;;1.95;;
26822;SDS011;14852;51.910;8.878;2023-02-28T13:38:57;2.38;;;2.03;;
26822;SDS011;14852;51.910;8.878;2023-02-28T13:44:00;4.25;;;2.65;;
26822;SDS011;14852;51.910;8.878;2023-02-28T13:51:52;3.47;;;2.30;;
26822;SDS011;14852;51.910;8.878;2023-02-28T14:08:46;4.25;;;2.10;;
26822;SDS011;14852;51.910;8.878;2023-02-28T14:11:41;3.03;;;2.30;;
26822;SDS011;14852;51.910;8.878;2023-02-28T14:14:09;4.22;;;2.33;;
26822;SDS011;14852;51.910;8.878;2023-02-28T14:17:15;3.13;;;2.03;;
26822;SDS011;14852;51.910;8.878;2023-02-28T14:19:45;3.92;;;2.00;;
26822;SDS011;14852;51.910;8.878;2023-02-28T14:22:21;4.00;;;2.45;;
26822;SDS011;14852;51.910;8.878;2023-02-28T14:25:08;3.13;;;2.40;;
26822;SDS011;14852;51.910;8.878;2023-02-28T14:28:14;3.50;;;2.10;;
26822;SDS011;14852;51.910;8.878;2023-02-28T14:31:15;5.25;;;2.42;;
26822;SDS011;14852;51.910;8.878;2023-02-28T14:36:49;3.95;;;2.60;;
26822;SDS011;14852;51.910;8.878;2023-02-28T14:39:24;5.28;;;3.15;;
26822;SDS011;14852;51.910;8.878;2023-02-28T14:41:51;3.33;;;2.35;;
26822;SDS011;14852;51.910;8.878;2023-02-28T14:44:19;3.92;;;2.60;;
26822;SDS011;14852;51.910;8.878;2023-02-28T14:46:48;3.55;;;2.50;;
26822;SDS011;14852;51.910;8.878;2023-02-28T14:49:24;3.72;;;2.20;;
26822;SDS011;14852;51.910;8.878;2023-02-28T14:52:06;3.25;;;2.50;;
26822;SDS011;14852;51.910;8.878;2023-02-28T14:54:53;4.45;;;2.50;;
26822;SDS011;14852;51.910;8.878;2023-02-28T14:57:25;4.80;;;2.63;;
26822;SDS011;14852;51.910;8.878;2023-02-28T15:00:04;2.88;;;2.20;;
26822;SDS011;14852;51.910;8.878;2023-02-28T15:02:38;3.38;;;2.50;;
26822;SDS011;14852;51.910;8.878;2023-02-28T15:07:45;3.53;;;2.08;;
26822;SDS011;14852;51.910;8.878;2023-02-28T15:10:19;3.65;;;2.78;;
26822;SDS011;14852;51.910;8.878;2023-02-28T15:15:24;3.83;;;2.78;;
26822;SDS011;14852;51.910;8.878;2023-02-28T15:17:57;4.53;;;2.78;;
26822;SDS011;14852;51.910;8.878;2023-02-28T15:20:25;2.80;;;2.15;;
26822;SDS011;14852;51.910;8.878;2023-02-28T15:22:52;5.55;;;2.08;;
26822;SDS011;14852;51.910;8.878;2023-02-28T15:25:21;4.95;;;2.63;;
26822;SDS011;14852;51.910;8.878;2023-02-28T15:27:50;2.97;;;2.10;;
26822;SDS011;14852;51.910;8.878;2023-02-28T15:30:21;2.80;;;2.47;;
26822;SDS011;14852;51.910;8.878;2023-02-28T15:33:06;3.60;;;2.55;;
26822;SDS011;14852;51.910;8.878;2023-02-28T15:35:48;6.70;;;3.25;;
26822;SDS011;14852;51.910;8.878;2023-02-28T15:38:16;4.40;;;2.50;;
26822;SDS011;14852;51.910;8.878;2023-02-28T15:40:49;3.50;;;2.38;;
26822;SDS011;14852;51.910;8.878;2023-02-28T15:46:01;4.60;;;2.67;;
26822;SDS011;14852;51.910;8.878;2023-02-28T15:48:51;3.55;;;2.47;;
26822;SDS011;14852;51.910;8.878;2023-02-28T15:51:39;4.72;;;2.42;;
26822;SDS011;14852;51.910;8.878;2023-02-28T15:54:07;2.80;;;1.98;;
26822;SDS011;14852;51.910;8.878;2023-02-28T15:56:44;5.32;;;2.88;;
26822;SDS011;14852;51.910;8.878;2023-02-28T15:59:16;4.15;;;2.28;;
26822;SDS011;14852;51.910;8.878;2023-02-28T16:07:22;4.25;;;2.80;;
26822;SDS011;14852;51.910;8.878;2023-02-28T16:09:49;5.68;;;4.07;;
26822;SDS011;14852;51.910;8.878;2023-02-28T16:12:15;3.75;;;2.20;;
26822;SDS011;14852;51.910;8.878;2023-02-28T16:14:41;4.10;;;2.13;;
26822;SDS011;14852;51.910;8.878;2023-02-28T16:17:16;3.60;;;2.53;;
26822;SDS011;14852;51.910;8.878;2023-02-28T16:19:53;3.05;;;2.08;;
26822;SDS011;14852;51.910;8.878;2023-02-28T16:22:20;2.95;;;2.35;;
26822;SDS011;14852;51.910;8.878;2023-02-28T16:24:47;3.08;;;2.20;;
26822;SDS011;14852;51.910;8.878;2023-02-28T16:27:15;4.20;;;2.92;;
26822;SDS011;14852;51.910;8.878;2023-02-28T16:29:45;3.53;;;2.72;;
26822;SDS011;14852;51.910;8.878;2023-02-28T16:32:14;4.90;;;2.40;;
26822;SDS011;14852;51.910;8.878;2023-02-28T16:34:41;6.00;;;3.33;;
26822;SDS011;14852;51.910;8.878;2023-02-28T16:37:10;4.68;;;2.80;;
26822;SDS011;14852;51.910;8.878;2023-02-28T16:39:39;6.20;;;3.47;;
26822;SDS011;14852;51.910;8.878;2023-02-28T16:42:06;3.95;;;2.70;;
26822;SDS011;14852;51.910;8.878;2023-02-28T16:44:38;3.50;;;2.60;;
26822;SDS011;14852;51.910;8.878;2023-02-28T16:47:05;3.33;;;2.38;;
26822;SDS011;14852;51.910;8.878;2023-02-28T16:49:31;4.45;;;2.75;;
26822;SDS011;14852;51.910;8.878;2023-02-28T16:51:56;5.22;;;3.85;;
26822;SDS011;14852;51.910;8.878;2023-02-28T16:54:22;5.03;;;3.47;;
26822;SDS011;14852;51.910;8.878;2023-02-28T16:56:48;6.00;;;3.75;;
26822;SDS011;14852;51.910;8.878;2023-02-28T16:59:17;5.88;;;4.03;;
26822;SDS011;14852;51.910;8.878;2023-02-28T17:01:47;4.95;;;3.78;;
26822;SDS011;14852;51.910;8.878;2023-02-28T17:04:14;5.25;;;3.97;;
26822;SDS011;14852;51.910;8.878;2023-02-28T17:06:40;6.80;;;4.45;;
26822;SDS011;14852;51.910;8.878;2023-02-28T17:09:08;6.43;;;4.70;;
26822;SDS011;14852;51.910;8.878;2023-02-28T17:11:43;6.65;;;3.97;;
26822;SDS011;14852;51.910;8.878;2023-02-28T17:14:09;6.10;;;4.60;;
26822;SDS011;14852;51.910;8.878;2023-02-28T17:16:35;8.52;;;5.70;;
26822;SDS011;14852;51.910;8.878;2023-02-28T17:19:05;9.18;;;6.18;;
26822;SDS011;14852;51.910;8.878;2023-02-28T17:21:36;8.95;;;4.00;;
26822;SDS011;14852;51.910;8.878;2023-02-28T17:24:02;7.07;;;3.67;;
26822;SDS011;14852;51.910;8.878;2023-02-28T17:26:28;5.03;;;3.17;;
26822;SDS011;14852;51.910;8.878;2023-02-28T17:28:55;4.35;;;2.63;;
26822;SDS011;14852;51.910;8.878;2023-02-28T17:31:22;4.40;;;3.58;;
26822;SDS011;14852;51.910;8.878;2023-02-28T17:33:50;5.07;;;3.25;;
26822;SDS011;14852;51.910;8.878;2023-02-28T17:36:17;8.02;;;5.70;;
26822;SDS011;14852;51.910;8.878;2023-02-28T17:41:15;9.80;;;6.35;;
26822;SDS011;14852;51.910;8.878;2023-02-28T17:43:40;7.35;;;4.90;;
26822;SDS011;14852;51.910;8.878;2023-02-28T17:46:16;7.03;;;5.30;;